Biddeford, Maine
Current Conditions -  °F | °C
As of 2:51 PM on Friday 28 Nov 2014 (Local Time) from KPWM Reporting Station
Overcast Overcast  
Wind Chill: 32°   Ceiling: 5000
Heat Index: 32°   Visibility: 10mi
Dew Point: 23°   Wind: 0mph
Humidity: 69%   Direction: NA
Pressure: 30.04"   Gusts: NA
Location:  43.49°N, 70.46°W
Report Text: KPWM 281951Z 00000KT 10SM OVC050 00/M05 A3004 RMK AO2 SLP175 T00001050
Loading
Personal Weather Stations






























Interactive Weather Map New forecast layout! Learn more

10-Day Weather Forecast

Advertisements
Track Severe Weather on mobile